createdAt,value
2022-10-17T00:01:08.056Z,101143.80
2022-10-17T00:06:13.891Z,101155.09
2022-10-17T00:11:20.410Z,101142.63
2022-10-17T00:16:24.525Z,101153.59
2022-10-17T00:21:27.225Z,101153.38
2022-10-17T00:26:30.096Z,101157.49
2022-10-17T00:31:32.905Z,101154.54
2022-10-17T00:36:35.547Z,101156.16
2022-10-17T00:41:38.162Z,101150.02
2022-10-17T00:46:40.812Z,101156.63
2022-10-17T00:51:46.898Z,101150.66
2022-10-17T00:56:50.309Z,101166.81
2022-10-17T01:02:11.750Z,101163.52
2022-10-17T01:07:14.757Z,101155.16
2022-10-17T01:12:22.474Z,101151.12
2022-10-17T01:17:59.219Z,101163.55
2022-10-17T01:23:19.107Z,101150.11
2022-10-17T01:28:40.050Z,101154.42
2022-10-17T01:34:03.880Z,101166.09
2022-10-17T01:39:34.400Z,101174.80
2022-10-17T01:44:50.183Z,101176.76
2022-10-17T01:49:55.275Z,101187.02
2022-10-17T01:55:08.633Z,101196.23
2022-10-17T02:00:17.789Z,101206.51
2022-10-17T02:05:24.677Z,101220.18
2022-10-17T02:10:53.586Z,101232.31
2022-10-17T02:16:04.846Z,101231.73
2022-10-17T02:21:14.360Z,101231.98
2022-10-17T02:26:28.938Z,101237.45
2022-10-17T02:31:39.211Z,101237.77
2022-10-17T02:36:49.910Z,101250.77
2022-10-17T02:41:56.670Z,101246.98
2022-10-17T02:47:31.851Z,101243.25
2022-10-17T02:52:48.586Z,101251.23
2022-10-17T02:57:56.099Z,101257.34
2022-10-17T03:02:58.780Z,101266.77
2022-10-17T03:08:01.399Z,101269.88
2022-10-17T03:13:04.025Z,101269.67
2022-10-17T03:18:06.727Z,101279.80
2022-10-17T03:23:09.392Z,101289.87
2022-10-17T03:28:12.602Z,101281.52
2022-10-17T03:33:15.273Z,101285.67
2022-10-17T03:38:17.898Z,101284.13
2022-10-17T03:43:20.498Z,101284.83
2022-10-17T03:48:23.137Z,101290.77
2022-10-17T03:53:25.793Z,101303.30
2022-10-17T03:58:29.008Z,101304.61
2022-10-17T04:03:32.004Z,101303.23
2022-10-17T04:08:35.215Z,101306.97
2022-10-17T04:13:37.851Z,101306.86
2022-10-17T04:18:41.098Z,101311.89
2022-10-17T04:23:43.721Z,101320.11
2022-10-17T04:28:46.513Z,101328.34
2022-10-17T04:33:50.530Z,101328.59
2022-10-17T04:38:53.137Z,101324.00
2022-10-17T04:43:55.733Z,101328.55
2022-10-17T04:48:58.551Z,101330.98
2022-10-17T04:54:01.194Z,101349.50
2022-10-17T04:59:03.844Z,101354.24
2022-10-17T05:04:06.511Z,101351.25
2022-10-17T05:09:09.136Z,101353.34
2022-10-17T05:14:11.834Z,101345.52
2022-10-17T05:19:14.445Z,101343.10
2022-10-17T05:24:17.232Z,101352.38
2022-10-17T05:29:19.891Z,101349.06
2022-10-17T05:34:22.526Z,101354.55
2022-10-17T05:39:25.296Z,101354.91
2022-10-17T05:44:28.230Z,101361.94
2022-10-17T05:49:39.971Z,101363.21
2022-10-17T05:54:47.658Z,101366.39
2022-10-17T05:59:50.556Z,101366.14
2022-10-17T06:04:53.361Z,101379.63
2022-10-17T06:09:56.021Z,101391.64
2022-10-17T06:14:59.114Z,101392.06
2022-10-17T06:20:02.086Z,101401.09
2022-10-17T06:25:05.181Z,101406.10
2022-10-17T06:30:08.366Z,101401.10
2022-10-17T06:35:11.048Z,101395.95
2022-10-17T06:40:16.949Z,101398.66
2022-10-17T06:45:19.583Z,101400.42
2022-10-17T06:50:22.477Z,101412.17
2022-10-17T06:55:25.163Z,101419.65
2022-10-17T07:00:28.424Z,101425.67
2022-10-17T07:05:31.176Z,101429.11
2022-10-17T07:10:38.296Z,101443.07
2022-10-17T07:15:42.195Z,101451.84
2022-10-17T07:20:53.042Z,101448.31
2022-10-17T07:26:01.633Z,101445.86
2022-10-17T07:31:13.348Z,101453.89
2022-10-17T07:36:16.815Z,101448.66
2022-10-17T07:41:21.793Z,101450.59
2022-10-17T07:46:24.901Z,101448.42
2022-10-17T07:51:28.400Z,101448.61
2022-10-17T07:56:31.649Z,101451.38
2022-10-17T08:01:34.245Z,101455.55
2022-10-17T08:06:36.940Z,101459.92
2022-10-17T08:11:39.680Z,101458.33
2022-10-17T08:16:43.261Z,101462.16
2022-10-17T08:21:46.944Z,101456.85
2022-10-17T08:26:51.830Z,101448.48
2022-10-17T08:31:58.664Z,101445.33
2022-10-17T08:37:04.220Z,101444.67
2022-10-17T08:42:25.991Z,101451.44
2022-10-17T08:47:45.555Z,101458.91
2022-10-17T08:52:56.456Z,101454.76
2022-10-17T08:57:59.241Z,101441.27
2022-10-17T09:03:23.773Z,101438.10
2022-10-17T09:08:44.452Z,101439.61
2022-10-17T09:14:02.897Z,101436.88
2022-10-17T09:19:24.467Z,101436.07
2022-10-17T09:24:44.577Z,101441.21
2022-10-17T09:29:49.998Z,101422.30
2022-10-17T09:34:53.864Z,101419.23
2022-10-17T09:39:56.955Z,101421.37
2022-10-17T09:45:26.802Z,101421.52
2022-10-17T09:50:35.021Z,101421.18
2022-10-17T09:55:48.498Z,101419.13
2022-10-17T10:00:51.214Z,101429.52
2022-10-17T10:05:59.734Z,101424.34
2022-10-17T10:11:06.558Z,101418.55
2022-10-17T10:16:21.000Z,101412.36
2022-10-17T10:21:26.830Z,101400.66
2022-10-17T10:26:40.928Z,101397.05
2022-10-17T10:31:44.138Z,101387.58
2022-10-17T10:37:14.708Z,101381.52
2022-10-17T10:42:27.159Z,101380.96
2022-10-17T10:47:32.649Z,101375.09
2022-10-17T10:52:46.337Z,101363.54
2022-10-17T10:57:53.149Z,101364.96
2022-10-17T11:03:12.826Z,101360.59
2022-10-17T11:08:49.117Z,101358.21
2022-10-17T11:14:00.739Z,101357.90
2022-10-17T11:19:21.140Z,101356.17
2022-10-17T11:24:27.936Z,101355.08
2022-10-17T11:29:38.518Z,101345.05
2022-10-17T11:34:48.230Z,101341.08
2022-10-17T11:40:03.212Z,101338.80
2022-10-17T11:45:14.112Z,101329.44
2022-10-17T11:56:02.181Z,101313.17
2022-10-17T12:01:19.834Z,101308.02
2022-10-17T12:06:27.098Z,101307.58
2022-10-17T12:11:58.329Z,101303.30
2022-10-17T12:17:02.640Z,101299.62
2022-10-17T12:22:28.689Z,101294.19
2022-10-17T12:27:42.297Z,101286.73
2022-10-17T12:33:06.172Z,101285.02
2022-10-17T12:38:20.901Z,101281.35
2022-10-17T12:43:29.670Z,101276.21
2022-10-17T12:48:38.608Z,101280.03
2022-10-17T12:54:02.689Z,101274.04
2022-10-17T12:59:17.244Z,101276.45
2022-10-17T13:04:20.831Z,101276.23
2022-10-17T13:09:32.634Z,101274.55
2022-10-17T13:14:35.440Z,101276.75
2022-10-17T13:19:44.227Z,101277.92
2022-10-17T13:24:48.179Z,101279.54
2022-10-17T13:29:50.955Z,101272.21
2022-10-17T13:35:09.405Z,101274.61
2022-10-17T13:40:40.930Z,101272.63
2022-10-17T13:45:39.695Z,101254.59
2022-10-17T13:50:44.794Z,101246.50
2022-10-17T13:56:15.753Z,101225.70
2022-10-17T14:01:21.307Z,101229.92
2022-10-17T14:06:31.352Z,101226.30
2022-10-17T14:11:37.135Z,101216.63
2022-10-17T14:16:42.170Z,101204.02
2022-10-17T14:21:49.388Z,101206.55
2022-10-17T14:26:54.308Z,101198.36
2022-10-17T14:32:00.214Z,101205.77
2022-10-17T14:37:10.043Z,101205.60
2022-10-17T14:42:19.392Z,101207.89
2022-10-17T14:47:42.601Z,101206.35
2022-10-17T14:53:03.739Z,101203.67
2022-10-17T14:58:17.731Z,101208.74
2022-10-17T15:03:20.496Z,101200.16
2022-10-17T15:08:24.238Z,101199.64
2022-10-17T15:13:28.488Z,101203.27
2022-10-17T15:18:32.609Z,101204.27
2022-10-17T15:23:35.230Z,101199.45
2022-10-17T15:28:37.905Z,101192.86
2022-10-17T15:33:41.101Z,101199.70
2022-10-17T15:38:43.798Z,101197.66
2022-10-17T15:43:48.560Z,101199.14
2022-10-17T15:48:51.759Z,101203.79
2022-10-17T15:53:54.453Z,101203.23
2022-10-17T15:58:58.219Z,101203.27
2022-10-17T16:04:01.164Z,101204.11
2022-10-17T16:09:03.983Z,101202.70
2022-10-17T16:14:18.271Z,101201.91
2022-10-17T16:19:21.783Z,101198.46
2022-10-17T16:24:25.074Z,101201.40
2022-10-17T16:29:27.680Z,101202.20
2022-10-17T16:34:31.812Z,101198.06
2022-10-17T16:39:34.496Z,101194.45
2022-10-17T16:44:37.116Z,101191.65
2022-10-17T16:49:42.900Z,101188.28
2022-10-17T16:54:47.932Z,101186.67
2022-10-17T16:59:50.630Z,101179.63
2022-10-17T17:04:53.250Z,101179.08
2022-10-17T17:09:56.437Z,101174.38
2022-10-17T17:14:59.236Z,101171.71
2022-10-17T17:20:01.944Z,101166.58
2022-10-17T17:25:05.149Z,101155.04
2022-10-17T17:30:08.552Z,101151.64
2022-10-17T17:35:11.157Z,101155.11
2022-10-17T17:40:13.892Z,101155.40
2022-10-17T17:45:16.748Z,101149.77
2022-10-17T17:50:19.770Z,101152.23
2022-10-17T17:55:22.383Z,101148.44
2022-10-17T18:00:25.318Z,101145.89
2022-10-17T18:05:28.220Z,101139.36
2022-10-17T18:10:30.815Z,101134.48
2022-10-17T18:15:33.567Z,101120.20
2022-10-17T18:20:41.057Z,101125.65
2022-10-17T18:25:52.869Z,101124.78
2022-10-17T18:30:58.250Z,101123.16
2022-10-17T18:36:10.450Z,101123.77
2022-10-17T18:41:16.593Z,101123.80
2022-10-17T18:46:20.570Z,101119.77
2022-10-17T18:51:24.896Z,101113.67
2022-10-17T18:56:27.622Z,101114.59
2022-10-17T19:01:30.332Z,101118.47
2022-10-17T19:06:33.119Z,101108.38
2022-10-17T19:11:37.418Z,101096.05
2022-10-17T19:16:48.167Z,101096.27
2022-10-17T19:21:51.880Z,101085.78
2022-10-17T19:26:57.632Z,101076.98
2022-10-17T19:32:01.095Z,101076.12
2022-10-17T19:37:03.875Z,101069.55
2022-10-17T19:42:07.139Z,101074.30
2022-10-17T19:47:10.165Z,101082.38
2022-10-17T19:52:13.354Z,101080.52
2022-10-17T19:57:16.111Z,101074.77
2022-10-17T20:02:18.777Z,101069.34
2022-10-17T20:07:21.381Z,101061.58
2022-10-17T20:12:24.096Z,101066.77
2022-10-17T20:17:27.008Z,101057.93
2022-10-17T20:22:30.198Z,101057.45
2022-10-17T20:27:33.175Z,101050.44
2022-10-17T20:32:39.461Z,101053.21
2022-10-17T20:37:42.889Z,101040.94
2022-10-17T20:42:45.672Z,101044.02
2022-10-17T20:47:54.130Z,101045.77
2022-10-17T20:53:12.349Z,101043.52
2022-10-17T20:58:19.588Z,101040.63
2022-10-17T21:03:22.491Z,101042.40
2022-10-17T21:08:25.077Z,101043.88
2022-10-17T21:13:27.673Z,101048.07
2022-10-17T21:18:30.270Z,101041.20
2022-10-17T21:23:32.865Z,101045.01
2022-10-17T21:28:37.365Z,101043.64
2022-10-17T21:33:41.738Z,101042.65
2022-10-17T21:38:46.532Z,101037.74
2022-10-17T21:43:53.704Z,101038.88
2022-10-17T21:48:58.426Z,101041.12
2022-10-17T21:54:01.073Z,101040.90
2022-10-17T21:59:05.140Z,101039.08
2022-10-17T22:04:11.256Z,101031.83
2022-10-17T22:09:15.502Z,101026.14
2022-10-17T22:14:21.171Z,101032.27
2022-10-17T22:19:26.677Z,101031.86
2022-10-17T22:24:29.341Z,101028.09
2022-10-17T22:29:32.141Z,101027.63
2022-10-17T22:34:34.922Z,101024.79
2022-10-17T22:39:38.850Z,101020.34
2022-10-17T22:44:41.487Z,101017.73
2022-10-17T22:49:44.082Z,101019.54
2022-10-17T22:54:46.702Z,101018.91
2022-10-17T22:59:49.439Z,101019.42
2022-10-17T23:04:52.071Z,101013.44
2022-10-17T23:09:54.700Z,101015.87
2022-10-17T23:14:57.347Z,101014.61
2022-10-17T23:19:59.950Z,101013.55
2022-10-17T23:25:02.840Z,101013.97
2022-10-17T23:30:06.429Z,101012.55
2022-10-17T23:35:10.059Z,101014.58
2022-10-17T23:40:13.281Z,101008.52
2022-10-17T23:45:16.042Z,101006.65
2022-10-17T23:50:19.251Z,101002.19
2022-10-17T23:55:21.990Z,101003.10
